createdAt,value
2018-02-17T00:00:28.673Z,90.19
2018-02-17T00:01:28.636Z,90
2018-02-17T00:02:28.403Z,89.81
2018-02-17T00:03:28.803Z,89.91
2018-02-17T00:04:28.430Z,90
2018-02-17T00:05:28.694Z,89.91
2018-02-17T00:06:28.711Z,90.1
2018-02-17T00:07:28.723Z,90
2018-02-17T00:08:28.747Z,89.91
2018-02-17T00:09:28.502Z,90
2018-02-17T00:10:28.772Z,90.38
2018-02-17T00:11:28.787Z,90.15
2018-02-17T00:12:28.800Z,90.29
2018-02-17T00:13:28.831Z,90.19
2018-02-17T00:14:28.889Z,90.1
2018-02-17T00:15:28.896Z,90.57
2018-02-17T00:16:28.856Z,89.91
2018-02-17T00:17:28.878Z,89.77
2018-02-17T00:18:28.887Z,90.91
2018-02-17T00:19:28.651Z,90.57
2018-02-17T00:20:28.764Z,90.57
2018-02-17T00:21:28.678Z,90.86
2018-02-17T00:22:28.694Z,90.67
2018-02-17T00:23:28.707Z,90.72
2018-02-17T00:24:28.724Z,90.72
2018-02-17T00:25:28.834Z,90.43
2018-02-17T00:26:28.748Z,90.62
2018-02-17T00:27:29.021Z,90.62
2018-02-17T00:28:29.036Z,90.53
2018-02-17T00:29:29.059Z,90.43
2018-02-17T00:30:29.121Z,90.53
2018-02-17T00:31:28.824Z,90.72
2018-02-17T00:32:29.098Z,90.53
2018-02-17T00:33:28.853Z,91
2018-02-17T00:34:28.868Z,90.91
2018-02-17T00:35:29.141Z,90.43
2018-02-17T00:36:29.155Z,90.72
2018-02-17T00:37:29.164Z,90.38
2018-02-17T00:38:29.181Z,90.48
2018-02-17T00:39:29.195Z,90.86
2018-02-17T00:40:29.215Z,90.05
2018-02-17T00:41:29.230Z,90.81
2018-02-17T00:42:29.240Z,90.62
2018-02-17T00:43:29.252Z,90.67
2018-02-17T00:44:29.270Z,90.81
2018-02-17T00:45:29.332Z,90.72
2018-02-17T00:46:29.302Z,90.86
2018-02-17T00:47:29.314Z,90.81
2018-02-17T00:48:29.074Z,90.43
2018-02-17T00:49:29.343Z,91
2018-02-17T00:50:29.104Z,91.38
2018-02-17T00:51:29.371Z,91.57
2018-02-17T00:52:29.384Z,91
2018-02-17T00:53:29.401Z,90.81
2018-02-17T00:54:29.416Z,90.62
2018-02-17T00:55:29.425Z,90.34
2018-02-17T00:56:29.443Z,90.29
2018-02-17T00:57:29.456Z,90.67
2018-02-17T00:58:29.472Z,90.76
2018-02-17T00:59:29.233Z,90.48
2018-02-17T01:00:29.549Z,90.38
2018-02-17T01:01:29.283Z,90.67
2018-02-17T01:02:29.531Z,90.95
2018-02-17T01:03:29.288Z,89.91
2018-02-17T01:04:29.560Z,89.81
2018-02-17T01:05:29.579Z,90.1
2018-02-17T01:06:29.586Z,90.1
2018-02-17T01:07:29.350Z,90
2018-02-17T01:08:29.620Z,90
2018-02-17T01:09:29.399Z,90.67
2018-02-17T01:10:29.646Z,90.76
2018-02-17T01:11:29.406Z,90.19
2018-02-17T01:12:29.679Z,90.57
2018-02-17T01:13:29.434Z,90.57
2018-02-17T01:14:29.456Z,89.62
2018-02-17T01:15:29.770Z,89.91
2018-02-17T01:16:29.732Z,90.1
2018-02-17T01:17:29.745Z,89.72
2018-02-17T01:18:29.775Z,90.19
2018-02-17T01:19:29.779Z,90
2018-02-17T01:20:29.791Z,89.62
2018-02-17T01:21:29.550Z,89.15
2018-02-17T01:22:29.822Z,90
2018-02-17T01:23:29.596Z,89.81
2018-02-17T01:24:29.592Z,89.43
2018-02-17T01:25:29.869Z,89.25
2018-02-17T01:26:29.878Z,89.62
2018-02-17T01:27:29.891Z,89.81
2018-02-17T01:28:29.653Z,89.53
2018-02-17T01:29:29.921Z,90.19
2018-02-17T01:30:29.733Z,89.81
2018-02-17T01:31:29.954Z,89.81
2018-02-17T01:32:29.963Z,90.76
2018-02-17T01:33:29.981Z,90.38
2018-02-17T01:34:29.996Z,90
2018-02-17T01:35:30.109Z,89.81
2018-02-17T01:36:29.769Z,89.91
2018-02-17T01:37:29.782Z,90.19
2018-02-17T01:38:30.053Z,89.91
2018-02-17T01:39:29.809Z,89.91
2018-02-17T01:40:30.077Z,89.91
2018-02-17T01:41:30.094Z,89.91
2018-02-17T01:42:29.854Z,89.81
2018-02-17T01:43:30.122Z,90.1
2018-02-17T01:44:30.135Z,89.81
2018-02-17T01:45:29.946Z,90.76
2018-02-17T01:46:30.164Z,90.1
2018-02-17T01:47:30.201Z,90.29
2018-02-17T01:48:29.940Z,90.1
2018-02-17T01:49:30.207Z,90.19
2018-02-17T01:50:30.281Z,89.81
2018-02-17T01:51:30.235Z,89.86
2018-02-17T01:52:30.249Z,89.96
2018-02-17T01:53:30.264Z,90.15
2018-02-17T01:54:30.281Z,90.62
2018-02-17T01:55:30.297Z,90.62
2018-02-17T01:56:30.309Z,91
2018-02-17T01:57:30.321Z,90.81
2018-02-17T01:58:30.336Z,90.62
2018-02-17T01:59:30.355Z,91
2018-02-17T02:00:30.360Z,90.81
2018-02-17T02:01:30.122Z,91
2018-02-17T02:02:30.394Z,91.52
2018-02-17T02:03:30.405Z,91.57
2018-02-17T02:04:30.416Z,91.28
2018-02-17T02:05:30.483Z,91.38
2018-02-17T02:06:30.458Z,91.47
2018-02-17T02:07:30.663Z,90.81
2018-02-17T02:08:30.475Z,90.81
2018-02-17T02:09:30.487Z,90.81
2018-02-17T02:10:30.246Z,90.24
2018-02-17T02:11:30.261Z,90.53
2018-02-17T02:12:30.530Z,90.72
2018-02-17T02:13:30.549Z,90.43
2018-02-17T02:14:30.558Z,90.43
2018-02-17T02:15:30.572Z,91
2018-02-17T02:16:30.590Z,90.81
2018-02-17T02:17:30.599Z,90.72
2018-02-17T02:18:30.615Z,91.33
2018-02-17T02:19:30.628Z,91.24
2018-02-17T02:20:30.692Z,91.62
2018-02-17T02:21:30.656Z,91.38
2018-02-17T02:22:30.670Z,91.28
2018-02-17T02:23:30.693Z,91
2018-02-17T02:24:30.699Z,90.95
2018-02-17T02:25:30.761Z,91.28
2018-02-17T02:26:30.471Z,91.52
2018-02-17T02:27:30.483Z,91.33
2018-02-17T02:28:30.758Z,91.33
2018-02-17T02:29:30.510Z,91.38
2018-02-17T02:30:30.778Z,91.38
2018-02-17T02:31:30.537Z,91
2018-02-17T02:32:30.804Z,91.38
2018-02-17T02:33:30.818Z,91
2018-02-17T02:34:30.835Z,90.53
2018-02-17T02:35:30.594Z,90.81
2018-02-17T02:36:30.864Z,90.91
2018-02-17T02:37:30.879Z,90.77
2018-02-17T02:38:30.890Z,91.52
2018-02-17T02:39:30.912Z,91.28
2018-02-17T02:40:30.810Z,91.38
2018-02-17T02:41:30.927Z,91.38
2018-02-17T02:42:30.953Z,91.09
2018-02-17T02:43:30.704Z,90.81
2018-02-17T02:44:30.968Z,90.53
2018-02-17T02:45:30.729Z,90.62
2018-02-17T02:46:30.742Z,90.43
2018-02-17T02:47:31.014Z,90.53
2018-02-17T02:48:31.024Z,90.53
2018-02-17T02:49:31.038Z,90.43
2018-02-17T02:50:31.052Z,90.34
2018-02-17T02:51:31.068Z,90.53
2018-02-17T02:52:30.825Z,90.72
2018-02-17T02:53:31.089Z,90.91
2018-02-17T02:54:31.103Z,90.72
2018-02-17T02:55:30.862Z,90.62
2018-02-17T02:56:30.877Z,90.53
2018-02-17T02:57:31.195Z,90.67
2018-02-17T02:58:31.160Z,90.53
2018-02-17T02:59:31.182Z,90.43
2018-02-17T03:00:31.185Z,90.29
2018-02-17T03:01:31.202Z,90.58
2018-02-17T03:02:31.212Z,90.77
2018-02-17T03:03:31.224Z,90.29
2018-02-17T03:04:31.243Z,90.67
2018-02-17T03:05:31.250Z,90.77
2018-02-17T03:06:31.011Z,91.33
2018-02-17T03:07:31.377Z,91.33
2018-02-17T03:08:31.293Z,92
2018-02-17T03:09:31.303Z,91.81
2018-02-17T03:10:31.315Z,92
2018-02-17T03:11:31.340Z,92.19
2018-02-17T03:12:31.398Z,91.33
2018-02-17T03:13:31.104Z,91.14
2018-02-17T03:14:31.370Z,91.33
2018-02-17T03:15:31.381Z,91.24
2018-02-17T03:16:31.395Z,91.24
2018-02-17T03:17:31.184Z,91.24
2018-02-17T03:18:31.435Z,91.24
2018-02-17T03:19:31.438Z,91.14
2018-02-17T03:20:31.448Z,91.14
2018-02-17T03:21:31.458Z,91.33
2018-02-17T03:22:31.477Z,92.19
2018-02-17T03:23:31.489Z,91.81
2018-02-17T03:24:31.501Z,91.71
2018-02-17T03:25:31.263Z,91.33
2018-02-17T03:26:31.525Z,91.33
2018-02-17T03:27:31.337Z,91.52
2018-02-17T03:28:31.559Z,91.24
2018-02-17T03:29:31.570Z,91.33
2018-02-17T03:30:31.332Z,90.95
2018-02-17T03:31:31.599Z,91.05
2018-02-17T03:32:31.349Z,91.33
2018-02-17T03:33:31.649Z,91.43
2018-02-17T03:34:31.635Z,91.33
2018-02-17T03:35:31.667Z,91.33
2018-02-17T03:36:31.658Z,91.52
2018-02-17T03:37:31.417Z,91.14
2018-02-17T03:38:31.686Z,91.33
2018-02-17T03:39:31.444Z,90.95
2018-02-17T03:40:31.712Z,91.81
2018-02-17T03:41:31.724Z,91.62
2018-02-17T03:42:31.533Z,91.52
2018-02-17T03:43:31.495Z,91.71
2018-02-17T03:44:31.758Z,91.43
2018-02-17T03:45:31.776Z,91.81
2018-02-17T03:46:31.783Z,91.52
2018-02-17T03:47:31.801Z,91.05
2018-02-17T03:48:31.815Z,91.52
2018-02-17T03:49:31.826Z,91.81
2018-02-17T03:50:31.840Z,91.52
2018-02-17T03:51:31.853Z,92.05
2018-02-17T03:52:31.867Z,91.76
2018-02-17T03:53:31.624Z,91.9
2018-02-17T03:54:31.893Z,91.71
2018-02-17T03:55:31.649Z,91.43
2018-02-17T03:56:31.664Z,91.81
2018-02-17T03:57:31.825Z,91.43
2018-02-17T03:58:31.941Z,91.52
2018-02-17T03:59:31.702Z,91.62
2018-02-17T04:00:31.714Z,91.81
2018-02-17T04:01:31.733Z,91.9
2018-02-17T04:02:32.092Z,91.33
2018-02-17T04:03:32.009Z,91.33
2018-02-17T04:04:31.767Z,91.33
2018-02-17T04:05:32.032Z,91.52
2018-02-17T04:06:32.046Z,91.14
2018-02-17T04:07:31.801Z,91.52
2018-02-17T04:08:32.073Z,91.52
2018-02-17T04:09:32.080Z,90.95
2018-02-17T04:10:32.095Z,90.95
2018-02-17T04:11:31.855Z,90.81
2018-02-17T04:12:32.120Z,90.48
2018-02-17T04:13:32.137Z,90.53
2018-02-17T04:14:32.197Z,90.48
2018-02-17T04:15:32.156Z,90.39
2018-02-17T04:16:32.170Z,90.39
2018-02-17T04:17:32.185Z,90.39
2018-02-17T04:18:32.212Z,90.67
2018-02-17T04:19:32.208Z,90.58
2018-02-17T04:20:32.225Z,90.86
2018-02-17T04:21:32.237Z,91.33
2018-02-17T04:22:32.249Z,90.77
2018-02-17T04:23:32.260Z,90.77
2018-02-17T04:24:32.371Z,90.67
2018-02-17T04:25:32.296Z,90.77
2018-02-17T04:26:32.300Z,90.58
2018-02-17T04:27:32.059Z,90.77
2018-02-17T04:28:32.323Z,90.67
2018-02-17T04:29:32.388Z,90.95
2018-02-17T04:30:32.352Z,90.58
2018-02-17T04:31:32.371Z,90.58
2018-02-17T04:32:32.374Z,90.67
2018-02-17T04:33:32.142Z,90.67
2018-02-17T04:34:32.150Z,90.39
2018-02-17T04:35:32.420Z,90.77
2018-02-17T04:36:32.435Z,90.77
2018-02-17T04:37:32.209Z,90.1
2018-02-17T04:38:32.454Z,90.77
2018-02-17T04:39:32.465Z,90.58
2018-02-17T04:40:32.480Z,90.48
2018-02-17T04:41:32.238Z,90.48
2018-02-17T04:42:32.513Z,90.39
2018-02-17T04:43:32.267Z,90.58
2018-02-17T04:44:32.584Z,90.77
2018-02-17T04:45:32.552Z,90.77
2018-02-17T04:46:32.303Z,90.58
2018-02-17T04:47:32.568Z,90.95
2018-02-17T04:48:32.580Z,90.58
2018-02-17T04:49:32.343Z,90.95
2018-02-17T04:50:32.355Z,90.58
2018-02-17T04:51:32.621Z,90.39
2018-02-17T04:52:32.387Z,90.77
2018-02-17T04:53:32.394Z,90.95
2018-02-17T04:54:32.759Z,90.48
2018-02-17T04:55:32.671Z,90.67
2018-02-17T04:56:32.685Z,90.48
2018-02-17T04:57:32.701Z,91.14
2018-02-17T04:58:32.709Z,90.58
2018-02-17T04:59:32.772Z,90.77
2018-02-17T05:00:32.734Z,91.24
2018-02-17T05:01:32.756Z,90.77
2018-02-17T05:02:32.507Z,90.86
2018-02-17T05:03:32.780Z,90.95
2018-02-17T05:04:32.786Z,90.95
2018-02-17T05:05:32.546Z,90.58
2018-02-17T05:06:32.562Z,90.48
2018-02-17T05:07:32.826Z,90.58
2018-02-17T05:08:32.582Z,90.77
2018-02-17T05:09:32.853Z,90.48
2018-02-17T05:10:32.608Z,90.58
2018-02-17T05:11:32.873Z,90.77
2018-02-17T05:12:32.632Z,90.29
2018-02-17T05:13:32.645Z,90.48
2018-02-17T05:14:32.966Z,90.91
2018-02-17T05:15:32.928Z,90.77
2018-02-17T05:16:32.684Z,90.91
2018-02-17T05:17:32.700Z,90.86
2018-02-17T05:18:32.710Z,91.33
2018-02-17T05:19:32.978Z,90.86
2018-02-17T05:20:32.753Z,90.95
2018-02-17T05:21:32.746Z,90.72
2018-02-17T05:22:32.762Z,90.91
2018-02-17T05:23:32.773Z,91.1
2018-02-17T05:24:32.787Z,90.86
2018-02-17T05:25:33.055Z,91.29
2018-02-17T05:26:32.817Z,91.38
2018-02-17T05:27:33.088Z,91.48
2018-02-17T05:28:32.839Z,91.38
2018-02-17T05:29:33.155Z,90.91
2018-02-17T05:30:33.116Z,92.14
2018-02-17T05:31:33.133Z,91.86
2018-02-17T05:32:33.142Z,91.38
2018-02-17T05:33:32.902Z,91.57
2018-02-17T05:34:33.230Z,91.57
2018-02-17T05:35:32.931Z,91.29
2018-02-17T05:36:32.937Z,91.29
2018-02-17T05:37:33.204Z,92.05
2018-02-17T05:38:32.970Z,91
2018-02-17T05:39:33.329Z,91.19
2018-02-17T05:40:33.243Z,91.38
2018-02-17T05:41:33.255Z,91.19
2018-02-17T05:42:33.268Z,91.48
2018-02-17T05:43:33.279Z,91.38
2018-02-17T05:44:33.333Z,91.38
2018-02-17T05:45:33.305Z,91.1
2018-02-17T05:46:33.320Z,91.1
2018-02-17T05:47:33.328Z,91
2018-02-17T05:48:33.089Z,90.91
2018-02-17T05:49:33.167Z,90.53
2018-02-17T05:50:33.366Z,91.33
2018-02-17T05:51:33.380Z,90.86
2018-02-17T05:52:33.394Z,90.58
2018-02-17T05:53:33.413Z,90.39
2018-02-17T05:54:33.163Z,90.67
2018-02-17T05:55:33.437Z,90.63
2018-02-17T05:56:33.441Z,90.95
2018-02-17T05:57:33.457Z,90.2
2018-02-17T05:58:33.469Z,90.48
2018-02-17T05:59:33.230Z,90.48
2018-02-17T06:00:33.499Z,90.39
2018-02-17T06:01:33.511Z,90.39
2018-02-17T06:02:33.519Z,89.91
2018-02-17T06:03:33.550Z,90.01
2018-02-17T06:04:33.345Z,90.58
2018-02-17T06:05:33.563Z,90.95
2018-02-17T06:06:33.317Z,90.29
2018-02-17T06:07:33.582Z,90.48
2018-02-17T06:08:33.596Z,90.77
2018-02-17T06:09:33.356Z,90.72
2018-02-17T06:10:33.623Z,90.72
2018-02-17T06:11:33.637Z,91.29
2018-02-17T06:12:33.648Z,90.95
2018-02-17T06:13:33.405Z,90.91
2018-02-17T06:14:33.671Z,91.24
2018-02-17T06:15:33.692Z,90.77
2018-02-17T06:16:33.699Z,90.91
2018-02-17T06:17:33.706Z,90.77
2018-02-17T06:18:33.724Z,90.91
2018-02-17T06:19:33.789Z,91
2018-02-17T06:20:33.496Z,91.38
2018-02-17T06:21:33.566Z,91.29
2018-02-17T06:22:33.773Z,91.1
2018-02-17T06:23:33.534Z,91.19
2018-02-17T06:24:33.813Z,91.76
2018-02-17T06:25:33.810Z,92.05
2018-02-17T06:26:33.572Z,91.48
2018-02-17T06:27:33.846Z,91.95
2018-02-17T06:28:33.598Z,91.76
2018-02-17T06:29:33.872Z,91.38
2018-02-17T06:30:33.876Z,91.29
2018-02-17T06:31:33.888Z,91.67
2018-02-17T06:32:33.900Z,90.91
2018-02-17T06:33:33.917Z,91.38
2018-02-17T06:34:33.979Z,91.38
2018-02-17T06:35:33.941Z,91.1
2018-02-17T06:36:33.955Z,91.43
2018-02-17T06:37:33.970Z,91.43
2018-02-17T06:38:33.729Z,91.48
2018-02-17T06:39:33.739Z,91.48
2018-02-17T06:40:34.003Z,91.95
2018-02-17T06:41:34.018Z,91.86
2018-02-17T06:42:33.824Z,91.95
2018-02-17T06:43:34.044Z,91.95
2018-02-17T06:44:33.800Z,91.76
2018-02-17T06:45:34.066Z,91.48
2018-02-17T06:46:34.096Z,91.1
2018-02-17T06:47:34.252Z,91.48
2018-02-17T06:48:34.110Z,91.38
2018-02-17T06:49:34.116Z,91.1
2018-02-17T06:50:34.130Z,91.14
2018-02-17T06:51:33.892Z,91.1
2018-02-17T06:52:33.903Z,91.48
2018-02-17T06:53:34.178Z,91.95
2018-02-17T06:54:34.182Z,91.76
2018-02-17T06:55:34.199Z,91.95
2018-02-17T06:56:33.951Z,91.86
2018-02-17T06:57:34.274Z,92.43
2018-02-17T06:58:33.978Z,92.43
2018-02-17T06:59:33.992Z,92.05
2018-02-17T07:00:34.255Z,92.14
2018-02-17T07:01:34.022Z,92.14
2018-02-17T07:02:34.029Z,92.14
2018-02-17T07:03:34.301Z,92.24
2018-02-17T07:04:34.055Z,92.14
2018-02-17T07:05:34.072Z,91.67
2018-02-17T07:06:34.333Z,92.14
2018-02-17T07:07:34.347Z,92.05
2018-02-17T07:08:34.356Z,92.14
2018-02-17T07:09:34.376Z,92.05
2018-02-17T07:10:34.393Z,91.67
2018-02-17T07:11:34.422Z,91.67
2018-02-17T07:12:34.460Z,91.76
2018-02-17T07:13:34.419Z,91.48
2018-02-17T07:14:34.434Z,91.67
2018-02-17T07:15:34.190Z,92.52
2018-02-17T07:16:34.470Z,92.8
2018-02-17T07:17:34.219Z,92.71
2018-02-17T07:18:34.484Z,92.8
2018-02-17T07:19:34.497Z,92.71
2018-02-17T07:20:34.510Z,92.33
2018-02-17T07:21:34.267Z,92.52
2018-02-17T07:22:34.382Z,92.14
2018-02-17T07:23:34.549Z,92.14
2018-02-17T07:24:34.560Z,92.9
2018-02-17T07:25:34.577Z,92.9
2018-02-17T07:26:34.590Z,92.71
2018-02-17T07:27:34.651Z,93.13
2018-02-17T07:28:34.611Z,92.85
2018-02-17T07:29:34.649Z,93.04
2018-02-17T07:30:34.636Z,92.9
2018-02-17T07:31:34.770Z,92.85
2018-02-17T07:32:34.660Z,93.04
2018-02-17T07:33:34.672Z,93.04
2018-02-17T07:34:34.430Z,92.85
2018-02-17T07:35:34.444Z,92.85
2018-02-17T07:36:34.717Z,92.94
2018-02-17T07:37:34.974Z,92.94
2018-02-17T07:38:34.735Z,92.24
2018-02-17T07:39:34.746Z,92.8
2018-02-17T07:40:34.764Z,92.43
2018-02-17T07:41:34.518Z,91.95
2018-02-17T07:42:34.580Z,91.76
2018-02-17T07:43:34.800Z,92.24
2018-02-17T07:44:34.577Z,91.48
2018-02-17T07:45:34.822Z,91.57
2018-02-17T07:46:34.584Z,91.57
2018-02-17T07:47:34.592Z,91.95
2018-02-17T07:48:34.960Z,91.76
2018-02-17T07:49:34.873Z,92.05
2018-02-17T07:50:34.887Z,91.48
2018-02-17T07:51:35.119Z,90.91
2018-02-17T07:52:34.911Z,91.86
2018-02-17T07:53:34.668Z,91.57
2018-02-17T07:54:34.935Z,91.57
2018-02-17T07:55:34.948Z,91.95
2018-02-17T07:56:34.713Z,91.57
2018-02-17T07:57:35.068Z,91.57
2018-02-17T07:58:35.037Z,91.38
2018-02-17T07:59:35.003Z,91
2018-02-17T08:00:35.014Z,91.1
2018-02-17T08:01:34.771Z,91.1
2018-02-17T08:02:34.804Z,91.48
2018-02-17T08:03:34.798Z,91.29
2018-02-17T08:04:35.066Z,91.29
2018-02-17T08:05:35.077Z,91.48
2018-02-17T08:06:35.093Z,91.76
2018-02-17T08:07:35.101Z,91.95
2018-02-17T08:08:35.120Z,91.48
2018-02-17T08:09:34.873Z,92.05
2018-02-17T08:10:35.141Z,92.05
2018-02-17T08:11:35.151Z,91.95
2018-02-17T08:12:35.168Z,91.67
2018-02-17T08:13:34.994Z,91.95
2018-02-17T08:14:35.190Z,91.67
2018-02-17T08:15:35.207Z,91.48
2018-02-17T08:16:34.964Z,91.38
2018-02-17T08:17:35.231Z,92.14
2018-02-17T08:18:35.243Z,91.67
2018-02-17T08:19:35.261Z,91.76
2018-02-17T08:20:35.267Z,91.48
2018-02-17T08:21:35.282Z,91.86
2018-02-17T08:22:35.036Z,91.67
2018-02-17T08:23:35.304Z,91.76
2018-02-17T08:24:35.396Z,91.29
2018-02-17T08:25:35.326Z,91.76
2018-02-17T08:26:35.342Z,91.57
2018-02-17T08:27:35.359Z,91.76
2018-02-17T08:28:35.163Z,91.67
2018-02-17T08:29:35.378Z,91.76
2018-02-17T08:30:35.417Z,91.76
2018-02-17T08:31:35.408Z,91.62
2018-02-17T08:32:35.418Z,92.19
2018-02-17T08:33:35.431Z,92.1
2018-02-17T08:34:35.451Z,92.57
2018-02-17T08:35:35.460Z,92.76
2018-02-17T08:36:35.467Z,92.76
2018-02-17T08:37:35.482Z,92.05
2018-02-17T08:38:35.492Z,91.95
2018-02-17T08:39:35.561Z,92.05
2018-02-17T08:40:35.517Z,92
2018-02-17T08:41:35.277Z,92.29
2018-02-17T08:42:35.540Z,92.19
2018-02-17T08:43:35.608Z,92.1
2018-02-17T08:44:35.570Z,92.29
2018-02-17T08:45:35.329Z,92.38
2018-02-17T08:46:35.593Z,92.19
2018-02-17T08:47:35.606Z,92.29
2018-02-17T08:48:35.666Z,92.66
2018-02-17T08:49:35.627Z,92.76
2018-02-17T08:50:35.641Z,92.1
2018-02-17T08:51:35.403Z,92.38
2018-02-17T08:52:35.417Z,92.38
2018-02-17T08:53:35.680Z,92.1
2018-02-17T08:54:35.692Z,92.29
2018-02-17T08:55:35.708Z,92.52
2018-02-17T08:56:35.717Z,92.24
2018-02-17T08:57:35.729Z,92.1
2018-02-17T08:58:35.539Z,92.24
2018-02-17T08:59:35.762Z,92.05
2018-02-17T09:00:35.770Z,91.95
2018-02-17T09:01:35.526Z,91.57
2018-02-17T09:02:35.815Z,91.86
2018-02-17T09:03:35.808Z,91.67
2018-02-17T09:04:35.818Z,91.57
2018-02-17T09:05:35.834Z,91.67
2018-02-17T09:06:35.588Z,91.29
2018-02-17T09:07:35.863Z,91
2018-02-17T09:08:35.871Z,91.38
2018-02-17T09:09:35.887Z,91.29
2018-02-17T09:10:35.643Z,91.48
2018-02-17T09:11:35.907Z,90.91
2018-02-17T09:12:35.667Z,91.33
2018-02-17T09:13:35.728Z,91.05
2018-02-17T09:14:35.950Z,90.44
2018-02-17T09:15:35.962Z,91.52
2018-02-17T09:16:35.971Z,90.58
2018-02-17T09:17:35.984Z,90.2
2018-02-17T09:18:35.744Z,90.58
2018-02-17T09:19:36.022Z,90.2
2018-02-17T09:20:36.027Z,90.58
2018-02-17T09:21:36.044Z,90.63
2018-02-17T09:22:36.049Z,90.39
2018-02-17T09:23:36.064Z,90.58
2018-02-17T09:24:36.081Z,90.77
2018-02-17T09:25:35.840Z,90.77
2018-02-17T09:26:36.120Z,90.39
2018-02-17T09:27:35.861Z,90.01
2018-02-17T09:28:36.178Z,90.39
2018-02-17T09:29:36.141Z,89.72
2018-02-17T09:30:35.902Z,89.82
2018-02-17T09:31:36.167Z,89.91
2018-02-17T09:32:36.184Z,90.29
2018-02-17T09:33:36.199Z,89.72
2018-02-17T09:34:36.213Z,90.01
2018-02-17T09:35:36.223Z,89.44
2018-02-17T09:36:36.240Z,88.87
2018-02-17T09:37:35.992Z,89.29
2018-02-17T09:38:36.010Z,89.2
2018-02-17T09:39:36.278Z,89.67
2018-02-17T09:40:36.034Z,89.29
2018-02-17T09:41:36.301Z,88.96
2018-02-17T09:42:36.060Z,89.34
2018-02-17T09:43:36.120Z,88.96
2018-02-17T09:44:36.083Z,89.15
2018-02-17T09:45:36.371Z,89.25
2018-02-17T09:46:36.363Z,89.91
2018-02-17T09:47:36.387Z,89.34
2018-02-17T09:48:36.389Z,90.01
2018-02-17T09:49:36.404Z,89.44
2018-02-17T09:50:36.417Z,90.2
2018-02-17T09:51:36.433Z,90.1
2018-02-17T09:52:36.446Z,89.44
2018-02-17T09:53:36.304Z,90.01
2018-02-17T09:54:36.471Z,90.01
2018-02-17T09:55:36.488Z,89.34
2018-02-17T09:56:36.499Z,89.53
2018-02-17T09:57:36.258Z,89.48
2018-02-17T09:58:36.571Z,89.53
2018-02-17T09:59:36.536Z,89.44
2018-02-17T10:00:36.295Z,90.01
2018-02-17T10:01:36.560Z,89.44
2018-02-17T10:02:36.576Z,89.15
2018-02-17T10:03:36.641Z,89.72
2018-02-17T10:04:36.598Z,89.91
2018-02-17T10:05:36.615Z,89.53
2018-02-17T10:06:36.626Z,90.1
2018-02-17T10:07:36.639Z,89.34
2018-02-17T10:08:36.752Z,89.34
2018-02-17T10:09:36.666Z,89.91
2018-02-17T10:10:36.676Z,89.72
2018-02-17T10:11:36.688Z,90.1
2018-02-17T10:12:36.710Z,89.63
2018-02-17T10:13:36.765Z,89.91
2018-02-17T10:14:36.727Z,90.2
2018-02-17T10:15:36.742Z,89.82
2018-02-17T10:16:36.755Z,89.63
2018-02-17T10:17:36.766Z,89.91
2018-02-17T10:18:36.783Z,89.82
2018-02-17T10:19:36.793Z,90.01
2018-02-17T10:20:36.811Z,90.29
2018-02-17T10:21:36.816Z,90.58
2018-02-17T10:22:36.833Z,90.01
2018-02-17T10:23:36.848Z,89.91
2018-02-17T10:24:36.906Z,89.91
2018-02-17T10:25:36.870Z,89.91
2018-02-17T10:26:36.888Z,90.67
2018-02-17T10:27:36.898Z,89.91
2018-02-17T10:28:36.960Z,89.82
2018-02-17T10:29:36.926Z,90.39
2018-02-17T10:30:36.680Z,90.58
2018-02-17T10:31:36.949Z,89.72
2018-02-17T10:32:36.962Z,90.2
2018-02-17T10:33:36.719Z,90.1
2018-02-17T10:34:36.992Z,90.58
2018-02-17T10:35:37.181Z,90.2
2018-02-17T10:36:37.015Z,89.91
2018-02-17T10:37:37.025Z,90.1
2018-02-17T10:38:37.048Z,90.2
2018-02-17T10:39:37.049Z,89.63
2018-02-17T10:40:37.063Z,89.72
2018-02-17T10:41:37.079Z,90.86
2018-02-17T10:42:37.088Z,90.01
2018-02-17T10:43:37.153Z,89.34
2018-02-17T10:44:37.118Z,89.82
2018-02-17T10:45:37.024Z,90.01
2018-02-17T10:46:36.886Z,89.91
2018-02-17T10:47:37.154Z,89.96
2018-02-17T10:48:37.272Z,89.96
2018-02-17T10:49:37.179Z,89.77
2018-02-17T10:50:37.261Z,90.05
2018-02-17T10:51:37.207Z,90.15
2018-02-17T10:52:37.233Z,89.96
2018-02-17T10:53:36.978Z,90.05
2018-02-17T10:54:37.245Z,89.48
2018-02-17T10:55:37.269Z,89.48
2018-02-17T10:56:37.274Z,89.01
2018-02-17T10:57:37.284Z,89.06
2018-02-17T10:58:37.296Z,89.15
2018-02-17T10:59:37.320Z,89.91
2018-02-17T11:00:37.420Z,89.53
2018-02-17T11:01:37.338Z,89.91
2018-02-17T11:02:37.360Z,89.77
2018-02-17T11:03:37.365Z,89.86
2018-02-17T11:04:37.374Z,89.86
2018-02-17T11:05:37.386Z,89.77
2018-02-17T11:06:37.149Z,89.77
2018-02-17T11:07:37.161Z,89.86
2018-02-17T11:08:37.432Z,89.77
2018-02-17T11:09:37.189Z,89.96
2018-02-17T11:10:37.462Z,89.2
2018-02-17T11:11:37.220Z,89.39
2018-02-17T11:12:37.521Z,89.39
2018-02-17T11:13:37.496Z,89.39
2018-02-17T11:14:37.256Z,89.34
2018-02-17T11:15:37.523Z,89.72
2018-02-17T11:16:37.332Z,90.39
2018-02-17T11:17:37.549Z,90.67
2018-02-17T11:18:37.564Z,90.77
2018-02-17T11:19:37.331Z,90.77
2018-02-17T11:20:37.591Z,89.91
2018-02-17T11:21:37.604Z,90.67
2018-02-17T11:22:37.618Z,90.95
2018-02-17T11:23:37.628Z,90.48
2018-02-17T11:24:37.643Z,90.77
2018-02-17T11:25:37.659Z,90.1
2018-02-17T11:26:37.674Z,90.39
2018-02-17T11:27:37.681Z,89.91
2018-02-17T11:28:37.703Z,90.58
2018-02-17T11:29:37.716Z,90.43
2018-02-17T11:30:37.729Z,90.24
2018-02-17T11:31:37.788Z,90.91
2018-02-17T11:32:37.502Z,90.81
2018-02-17T11:33:37.769Z,90.05
2018-02-17T11:34:37.780Z,90.1
2018-02-17T11:35:37.808Z,90.62
2018-02-17T11:36:37.809Z,90.72
2018-02-17T11:37:37.566Z,89.86
2018-02-17T11:38:37.829Z,89.86
2018-02-17T11:39:37.850Z,89.77
2018-02-17T11:40:37.861Z,89.72
2018-02-17T11:41:37.870Z,90.15
2018-02-17T11:42:37.882Z,90.05
2018-02-17T11:43:37.900Z,89.82
2018-02-17T11:44:37.914Z,90.81
2018-02-17T11:45:37.923Z,90.2
2018-02-17T11:46:37.684Z,89.82
2018-02-17T11:47:38.002Z,90.77
2018-02-17T11:48:37.968Z,90.39
2018-02-17T11:49:37.978Z,90.01
2018-02-17T11:50:37.979Z,90.58
2018-02-17T11:51:37.994Z,90.29
2018-02-17T11:52:37.758Z,90.95
2018-02-17T11:53:37.787Z,90.77
2018-02-17T11:54:38.035Z,90.67
2018-02-17T11:55:37.815Z,90.58
2018-02-17T11:56:38.061Z,91.14
2018-02-17T11:57:38.086Z,90.39
2018-02-17T11:58:37.848Z,90.77
2018-02-17T11:59:38.195Z,90.39
2018-02-17T12:00:37.870Z,90.48
2018-02-17T12:01:37.886Z,90.48
2018-02-17T12:02:38.204Z,90.58
2018-02-17T12:03:38.169Z,90.53
2018-02-17T12:04:38.188Z,90.77
2018-02-17T12:05:38.191Z,90.39
2018-02-17T12:06:37.952Z,90.1
2018-02-17T12:07:38.219Z,89.96
2018-02-17T12:08:37.977Z,90.53
2018-02-17T12:09:37.995Z,90.62
2018-02-17T12:10:38.262Z,90.62
2018-02-17T12:11:38.018Z,90.43
2018-02-17T12:12:38.031Z,90.43
2018-02-17T12:13:38.047Z,90.72
2018-02-17T12:14:38.312Z,91
2018-02-17T12:15:38.073Z,90.53
2018-02-17T12:16:38.085Z,90.05
2018-02-17T12:17:38.404Z,89.77
2018-02-17T12:18:38.108Z,90.81
2018-02-17T12:19:38.124Z,91
2018-02-17T12:20:38.139Z,90.15
2018-02-17T12:21:38.148Z,90.05
2018-02-17T12:22:38.165Z,89.96
2018-02-17T12:23:38.440Z,89.67
2018-02-17T12:24:38.190Z,90.62
2018-02-17T12:25:38.459Z,90.72
2018-02-17T12:26:38.485Z,90.67
2018-02-17T12:27:38.229Z,90.58
2018-02-17T12:28:38.495Z,90.39
2018-02-17T12:29:38.517Z,90.81
2018-02-17T12:30:38.274Z,90.91
2018-02-17T12:31:38.300Z,91
2018-02-17T12:32:38.346Z,90.58
2018-02-17T12:33:38.309Z,90.77
2018-02-17T12:34:38.588Z,90.39
2018-02-17T12:35:38.334Z,91.28
2018-02-17T12:36:38.600Z,91.38
2018-02-17T12:37:38.614Z,91.43
2018-02-17T12:38:38.373Z,91.14
2018-02-17T12:39:38.641Z,90.95
2018-02-17T12:40:38.399Z,91.24
2018-02-17T12:41:38.672Z,91.24
2018-02-17T12:42:38.425Z,91.95
2018-02-17T12:43:38.693Z,91.47
2018-02-17T12:44:38.708Z,91.33
2018-02-17T12:45:38.719Z,91.33
2018-02-17T12:46:38.734Z,91.24
2018-02-17T12:47:38.801Z,91.24
2018-02-17T12:48:38.761Z,91.33
2018-02-17T12:49:38.776Z,91.66
2018-02-17T12:50:38.788Z,91.95
2018-02-17T12:51:38.799Z,91.85
2018-02-17T12:52:38.811Z,91.76
2018-02-17T12:53:38.830Z,92.04
2018-02-17T12:54:38.858Z,91.85
2018-02-17T12:55:38.597Z,91.47
2018-02-17T12:56:38.862Z,91.85
2018-02-17T12:57:38.877Z,91.38